createdAt,value
2019-03-29T00:01:48.411Z,19.83
2019-03-29T00:06:51.454Z,19.83
2019-03-29T00:11:54.954Z,18.50
2019-03-29T00:16:59.214Z,25.20
2019-03-29T00:22:03.020Z,24.10
2019-03-29T00:27:07.261Z,25.07
2019-03-29T00:32:11.408Z,19.77
2019-03-29T00:37:14.863Z,16.00
2019-03-29T00:42:19.038Z,18.97
2019-03-29T00:47:21.802Z,24.43
2019-03-29T00:52:25.444Z,17.73
2019-03-29T00:57:29.294Z,20.30
2019-03-29T01:02:32.713Z,24.67
2019-03-29T01:07:36.533Z,15.60
2019-03-29T01:12:40.970Z,14.57
2019-03-29T01:17:45.748Z,14.53
2019-03-29T01:22:50.025Z,16.80
2019-03-29T01:27:54.221Z,14.37
2019-03-29T01:32:57.288Z,18.87
2019-03-29T01:38:01.175Z,18.10
2019-03-29T01:43:05.040Z,19.20
2019-03-29T01:48:09.226Z,16.57
2019-03-29T01:53:12.410Z,21.33
2019-03-29T01:58:17.011Z,14.60
2019-03-29T02:03:20.767Z,16.57
2019-03-29T02:08:35.238Z,20.80
2019-03-29T02:13:30.086Z,12.97
2019-03-29T02:18:33.558Z,15.93
2019-03-29T02:23:37.375Z,21.90
2019-03-29T02:28:41.199Z,16.97
2019-03-29T02:33:45.041Z,25.33
2019-03-29T02:38:55.751Z,17.43
2019-03-29T02:43:55.336Z,16.57
2019-03-29T02:48:59.502Z,17.43
2019-03-29T02:54:02.899Z,20.60
2019-03-29T02:59:06.703Z,17.47
2019-03-29T03:04:10.476Z,17.33
2019-03-29T03:09:14.936Z,17.40
2019-03-29T03:14:18.903Z,16.50
2019-03-29T03:19:22.731Z,16.03
2019-03-29T03:24:26.202Z,19.90
2019-03-29T03:29:30.476Z,25.73
2019-03-29T03:34:33.892Z,22.60
2019-03-29T03:39:37.723Z,18.10
2019-03-29T03:44:41.897Z,21.03
2019-03-29T03:49:46.081Z,19.17
2019-03-29T03:54:49.781Z,22.40
2019-03-29T03:59:54.960Z,19.67
2019-03-29T04:04:58.439Z,18.10
2019-03-29T04:10:02.309Z,23.00
2019-03-29T04:15:06.338Z,16.17
2019-03-29T04:20:09.807Z,17.93
2019-03-29T04:25:13.668Z,18.60
2019-03-29T04:30:17.091Z,18.17
2019-03-29T04:35:21.330Z,22.10
2019-03-29T04:40:24.756Z,17.17
2019-03-29T04:45:28.228Z,14.57
2019-03-29T04:50:32.132Z,16.07
2019-03-29T04:55:35.505Z,15.90
2019-03-29T05:00:39.338Z,24.40
2019-03-29T05:05:43.091Z,27.03
2019-03-29T05:10:47.268Z,25.27
2019-03-29T05:15:50.692Z,31.80
2019-03-29T05:20:54.620Z,27.47
2019-03-29T05:25:58.533Z,25.03
2019-03-29T05:31:02.372Z,27.90
2019-03-29T05:36:06.359Z,26.07
2019-03-29T05:41:10.330Z,29.93
2019-03-29T05:46:13.740Z,28.87
2019-03-29T05:51:17.920Z,26.80
2019-03-29T05:56:22.102Z,32.80
2019-03-29T06:01:25.888Z,29.03
2019-03-29T06:06:29.401Z,36.30
2019-03-29T06:11:32.855Z,35.63
2019-03-29T06:16:39.130Z,24.27
2019-03-29T06:21:42.043Z,26.17
2019-03-29T06:26:45.930Z,31.57
2019-03-29T06:31:50.145Z,35.73
2019-03-29T06:36:54.260Z,29.53
2019-03-29T06:41:58.167Z,35.60
2019-03-29T06:47:01.991Z,35.43
2019-03-29T06:52:05.881Z,30.33
2019-03-29T06:57:09.327Z,39.23
2019-03-29T07:02:12.742Z,36.33
2019-03-29T07:07:16.518Z,36.40
2019-03-29T07:12:20.293Z,34.47
2019-03-29T07:17:24.728Z,35.07
2019-03-29T07:22:28.240Z,30.20
2019-03-29T07:27:43.983Z,36.63
2019-03-29T07:32:37.741Z,33.27
2019-03-29T07:37:41.445Z,29.00
2019-03-29T07:42:45.280Z,38.30
2019-03-29T07:47:48.705Z,29.63
2019-03-29T07:52:52.687Z,40.80
2019-03-29T07:57:56.345Z,42.30
2019-03-29T08:02:59.765Z,36.73
2019-03-29T08:08:03.651Z,35.47
2019-03-29T08:13:07.946Z,43.30
2019-03-29T08:18:13.732Z,35.40
2019-03-29T08:23:17.915Z,43.77
2019-03-29T08:28:21.765Z,34.17
2019-03-29T08:33:24.823Z,40.57
2019-03-29T08:38:28.710Z,34.20
2019-03-29T08:43:32.447Z,36.20
2019-03-29T08:48:35.174Z,27.10
2019-03-29T08:53:39.018Z,39.70
2019-03-29T08:58:42.544Z,37.10
2019-03-29T09:03:55.165Z,44.73
2019-03-29T09:08:51.715Z,32.97
2019-03-29T09:13:55.507Z,30.50
2019-03-29T09:18:59.445Z,33.37
2019-03-29T09:24:03.719Z,26.90
2019-03-29T09:29:07.615Z,31.30
2019-03-29T09:34:11.474Z,28.87
2019-03-29T09:39:14.880Z,28.33
2019-03-29T09:44:19.133Z,31.67
2019-03-29T09:49:22.941Z,30.43
2019-03-29T09:54:26.463Z,34.50
2019-03-29T09:59:29.884Z,32.53
2019-03-29T10:04:33.342Z,32.13
2019-03-29T10:09:37.222Z,33.07
2019-03-29T10:14:40.636Z,39.53
2019-03-29T10:19:44.463Z,40.87
2019-03-29T10:24:48.998Z,40.07
2019-03-29T10:29:53.238Z,40.00
2019-03-29T10:34:57.066Z,37.63
2019-03-29T10:40:00.616Z,40.70
2019-03-29T10:45:05.350Z,44.43
2019-03-29T10:50:09.319Z,40.73
2019-03-29T10:55:13.183Z,42.30
2019-03-29T11:00:23.410Z,44.10
2019-03-29T11:05:27.265Z,43.53
2019-03-29T11:10:31.646Z,43.77
2019-03-29T11:15:35.939Z,38.67
2019-03-29T11:20:39.975Z,49.97
2019-03-29T11:25:43.442Z,50.73
2019-03-29T11:30:46.929Z,41.67
2019-03-29T11:35:51.096Z,41.87
2019-03-29T11:40:54.695Z,35.40
2019-03-29T11:45:59.521Z,46.90
2019-03-29T11:51:03.038Z,41.20
2019-03-29T11:56:05.741Z,40.00
2019-03-29T12:01:09.956Z,45.33
2019-03-29T12:06:13.979Z,40.63
2019-03-29T12:11:16.990Z,41.90
2019-03-29T12:16:21.113Z,53.53
2019-03-29T12:21:24.597Z,44.70
2019-03-29T12:26:28.479Z,39.37
2019-03-29T12:31:31.946Z,45.73
2019-03-29T12:36:36.075Z,39.57
2019-03-29T12:41:40.313Z,43.80
2019-03-29T12:46:44.166Z,42.40
2019-03-29T12:51:47.996Z,41.53
2019-03-29T12:56:51.566Z,43.83
2019-03-29T13:01:55.730Z,49.07
2019-03-29T13:06:59.669Z,39.00
2019-03-29T13:12:03.412Z,45.77
2019-03-29T13:17:07.274Z,41.73
2019-03-29T13:22:11.150Z,42.93
2019-03-29T13:27:14.616Z,37.77
2019-03-29T13:32:18.496Z,39.10
2019-03-29T13:37:22.648Z,39.47
2019-03-29T13:42:26.558Z,33.50
2019-03-29T13:47:30.294Z,46.20
2019-03-29T13:52:34.510Z,38.20
2019-03-29T13:57:38.433Z,38.70
2019-03-29T14:02:42.329Z,39.93
2019-03-29T14:07:46.188Z,38.60
2019-03-29T14:12:50.872Z,36.67
2019-03-29T14:17:54.639Z,38.97
2019-03-29T14:22:57.886Z,35.90
2019-03-29T14:28:01.829Z,40.50
2019-03-29T14:33:05.671Z,35.10
2019-03-29T14:38:09.446Z,35.43
2019-03-29T14:43:13.264Z,41.83
2019-03-29T14:48:17.144Z,42.30
2019-03-29T14:53:21.365Z,41.60
2019-03-29T14:58:24.084Z,48.00
2019-03-29T15:03:27.941Z,42.70
2019-03-29T15:08:31.764Z,39.10
2019-03-29T15:13:36.682Z,36.30
2019-03-29T15:18:40.237Z,45.47
2019-03-29T15:23:44.070Z,40.33
2019-03-29T15:28:47.477Z,38.93
2019-03-29T15:33:51.281Z,46.10
2019-03-29T15:38:55.127Z,49.43
2019-03-29T15:43:58.961Z,44.87
2019-03-29T15:49:02.774Z,48.83
2019-03-29T15:54:06.672Z,56.20
2019-03-29T15:59:09.813Z,56.23
2019-03-29T16:04:14.147Z,51.10
2019-03-29T16:09:17.965Z,49.43
2019-03-29T16:14:21.791Z,57.20
2019-03-29T16:19:24.974Z,50.20
2019-03-29T16:24:28.372Z,54.23
2019-03-29T16:29:32.736Z,56.57
2019-03-29T16:34:37.913Z,50.73
2019-03-29T16:39:41.326Z,62.53
2019-03-29T16:44:45.149Z,71.53
2019-03-29T16:49:48.614Z,55.03
2019-03-29T16:54:52.085Z,60.90
2019-03-29T16:59:55.961Z,61.30
2019-03-29T17:04:59.789Z,51.73
2019-03-29T17:10:03.658Z,62.47
2019-03-29T17:15:07.695Z,64.27
2019-03-29T17:20:10.789Z,60.10
2019-03-29T17:25:13.887Z,71.93
2019-03-29T17:30:24.074Z,63.43
2019-03-29T17:35:28.120Z,71.70
2019-03-29T17:40:33.167Z,65.23
2019-03-29T17:45:37.604Z,70.77
2019-03-29T17:50:42.956Z,74.17
2019-03-29T17:55:46.570Z,68.50
2019-03-29T18:00:50.427Z,76.23
2019-03-29T18:05:54.023Z,72.83
2019-03-29T18:10:57.554Z,90.93
2019-03-29T18:16:01.424Z,83.53
2019-03-29T18:21:05.344Z,82.33
2019-03-29T18:26:09.528Z,97.50
2019-03-29T18:31:15.613Z,86.13
2019-03-29T18:36:20.154Z,88.53
2019-03-29T18:41:24.080Z,84.80
2019-03-29T18:46:28.385Z,89.20
2019-03-29T18:51:32.523Z,100.30
2019-03-29T18:56:36.716Z,89.50
2019-03-29T19:01:41.125Z,90.43
2019-03-29T19:06:45.228Z,93.47
2019-03-29T19:11:49.227Z,106.87
2019-03-29T19:16:59.481Z,91.43
2019-03-29T19:22:07.572Z,94.93
2019-03-29T19:27:12.253Z,87.23
2019-03-29T19:32:26.805Z,96.07
2019-03-29T19:37:34.578Z,95.17
2019-03-29T19:42:40.577Z,101.77
2019-03-29T19:47:45.729Z,100.90
2019-03-29T19:52:55.183Z,98.77
2019-03-29T19:58:01.017Z,100.93
2019-03-29T20:03:05.113Z,103.63
2019-03-29T20:08:08.727Z,97.80
2019-03-29T20:13:15.462Z,94.50
2019-03-29T20:18:21.954Z,94.90
2019-03-29T20:23:26.078Z,99.57
2019-03-29T20:28:30.364Z,98.80
2019-03-29T20:33:34.214Z,110.00
2019-03-29T20:38:38.199Z,104.03
2019-03-29T20:43:54.442Z,109.50
2019-03-29T20:49:02.474Z,103.00
2019-03-29T20:54:08.551Z,110.50
2019-03-29T20:59:13.894Z,109.70
2019-03-29T21:04:22.178Z,110.37
2019-03-29T21:09:25.874Z,104.47
2019-03-29T21:14:38.833Z,96.53
2019-03-29T21:19:48.704Z,97.93
2019-03-29T21:24:55.261Z,114.50
2019-03-29T21:30:00.369Z,110.13
2019-03-29T21:35:04.241Z,101.73
2019-03-29T21:40:09.133Z,117.73
2019-03-29T21:45:27.673Z,116.47
2019-03-29T21:50:19.064Z,102.67
2019-03-29T21:55:24.661Z,100.10
2019-03-29T22:00:29.095Z,107.70
2019-03-29T22:05:33.069Z,101.70
2019-03-29T22:10:36.677Z,103.67
2019-03-29T22:15:40.934Z,100.47
2019-03-29T22:20:44.899Z,110.60
2019-03-29T22:25:48.061Z,113.07
2019-03-29T22:30:51.837Z,120.77
2019-03-29T22:35:55.704Z,113.67
2019-03-29T22:41:00.403Z,109.87
2019-03-29T22:46:04.840Z,134.13
2019-03-29T22:51:08.957Z,111.57
2019-03-29T22:56:12.811Z,106.27
2019-03-29T23:01:17.356Z,105.90
2019-03-29T23:06:21.149Z,31.53
2019-03-29T23:11:24.972Z,108.30
2019-03-29T23:16:30.357Z,92.03
2019-03-29T23:21:34.746Z,110.80
2019-03-29T23:26:38.716Z,106.77
2019-03-29T23:31:42.626Z,112.17
2019-03-29T23:36:45.358Z,110.53
2019-03-29T23:41:49.490Z,111.40
2019-03-29T23:46:53.750Z,111.23
2019-03-29T23:51:57.296Z,113.90
2019-03-29T23:57:00.736Z,130.63
